OAL737 LGAV-LPMA
Flight info
| Callsign | OAL737 |
|---|---|
| Flight time | N/A |
| Altitude | 34000 |
| Route | ASTOV DCT TRL DCT RESPA DCT LORNO/N0443F350 DCT SUBOK/N0441F340 DCT AGARI DCT SUSOM/N0446F360 DCT TUNEX DCT KAWKA DCT PAGRE DCT KIRLA DCT LIGUM/N0443F370 DCT OGDOR DCT RAKUN |
| Aircraft | A320/M-SDE3FGHIRWY/LB1 |
Departure
| Time | 2026-05-05 19:10 |
|---|---|
| Airport | Athens Eleftherios Venizelos International Airport (LGAV) |
Arrival
| Time | N/A |
|---|---|
| Airport | Cristiano Ronaldo International Airport (LPMA) |
| Time | Latitude | Longitude | Altitude | Speed | Heading |
|---|---|---|---|---|---|
| 2026-05-05 17:56 | 37.93511 | 23.94749 | 301 ft | 0 kts | 306° |
| 2026-05-05 18:58 | 37.93504 | 23.94762 | 301 ft | 4 kts | 304° |
| 2026-05-05 18:59 | 37.93489 | 23.94791 | 301 ft | 4 kts | 296° |
| 2026-05-05 18:59 | 37.93480 | 23.94823 | 302 ft | 4 kts | 275° |
| 2026-05-05 18:59 | 37.93484 | 23.94849 | 300 ft | 2 kts | 218° |
| 2026-05-05 18:59 | 37.93489 | 23.94853 | 302 ft | 0 kts | 217° |
| 2026-05-05 19:03 | 37.93488 | 23.94853 | 300 ft | 2 kts | 217° |
| 2026-05-05 19:04 | 37.93445 | 23.94811 | 302 ft | 8 kts | 217° |
| 2026-05-05 19:04 | 37.93403 | 23.94772 | 301 ft | 7 kts | 217° |
| 2026-05-05 19:04 | 37.93371 | 23.94741 | 302 ft | 5 kts | 217° |
| 2026-05-05 19:04 | 37.93346 | 23.94717 | 302 ft | 5 kts | 217° |
| 2026-05-05 19:05 | 37.93311 | 23.94683 | 301 ft | 8 kts | 217° |
| 2026-05-05 19:05 | 37.93256 | 23.94630 | 301 ft | 12 kts | 217° |
| 2026-05-05 19:05 | 37.93170 | 23.94595 | 301 ft | 15 kts | 184° |
| 2026-05-05 19:05 | 37.93068 | 23.94580 | 301 ft | 14 kts | 200° |
| 2026-05-05 19:06 | 37.92997 | 23.94517 | 302 ft | 11 kts | 217° |
| 2026-05-05 19:06 | 37.92936 | 23.94459 | 303 ft | 12 kts | 217° |
| 2026-05-05 19:06 | 37.92861 | 23.94388 | 301 ft | 15 kts | 217° |
| 2026-05-05 19:06 | 37.92782 | 23.94313 | 303 ft | 13 kts | 217° |
| 2026-05-05 19:07 | 37.92717 | 23.94250 | 302 ft | 11 kts | 217° |
| 2026-05-05 19:07 | 37.92660 | 23.94196 | 302 ft | 12 kts | 217° |
| 2026-05-05 19:07 | 37.92577 | 23.94117 | 302 ft | 15 kts | 217° |
| 2026-05-05 19:07 | 37.92495 | 23.94075 | 304 ft | 12 kts | 160° |
| 2026-05-05 19:08 | 37.92448 | 23.94143 | 303 ft | 9 kts | 130° |
| 2026-05-05 19:08 | 37.92416 | 23.94197 | 303 ft | 8 kts | 115° |
| 2026-05-05 19:08 | 37.92413 | 23.94285 | 307 ft | 12 kts | 87° |
| 2026-05-05 19:08 | 37.92423 | 23.94383 | 309 ft | 10 kts | 65° |
| 2026-05-05 19:09 | 37.92473 | 23.94441 | 310 ft | 16 kts | 38° |
| 2026-05-05 19:09 | 37.92733 | 23.94686 | 302 ft | 81 kts | 36° |
| 2026-05-05 19:09 | 37.93347 | 23.95269 | 294 ft | 137 kts | 37° |
| 2026-05-05 19:09 | 37.94234 | 23.96115 | 335 ft | 176 kts | 37° |
| 2026-05-05 19:10 | 37.95168 | 23.97075 | 987 ft | 172 kts | 37° |
| 2026-05-05 19:10 | 37.96119 | 23.98003 | 1649 ft | 173 kts | 37° |
| 2026-05-05 19:10 | 37.97100 | 23.98928 | 2209 ft | 182 kts | 36° |
| 2026-05-05 19:10 | 37.98177 | 23.99942 | 2501 ft | 204 kts | 36° |
| 2026-05-05 19:11 | 37.99381 | 24.01080 | 2700 ft | 228 kts | 36° |
| 2026-05-05 19:11 | 38.00703 | 24.02337 | 3123 ft | 244 kts | 36° |
| 2026-05-05 19:11 | 38.02064 | 24.03639 | 3875 ft | 246 kts | 36° |
| 2026-05-05 19:11 | 38.03416 | 24.04933 | 4681 ft | 246 kts | 35° |
| 2026-05-05 19:12 | 38.04787 | 24.06248 | 5485 ft | 247 kts | 35° |
| 2026-05-05 19:12 | 38.06162 | 24.07569 | 6308 ft | 247 kts | 35° |
| 2026-05-05 19:12 | 38.07544 | 24.08897 | 6821 ft | 249 kts | 36° |
| 2026-05-05 19:12 | 38.08785 | 24.10495 | 7202 ft | 264 kts | 57° |
| 2026-05-05 19:13 | 38.09356 | 24.12753 | 7813 ft | 277 kts | 83° |
| 2026-05-05 19:13 | 38.09063 | 24.15199 | 8502 ft | 289 kts | 110° |
| 2026-05-05 19:13 | 38.07861 | 24.17276 | 9193 ft | 301 kts | 140° |
| 2026-05-05 19:13 | 38.05951 | 24.18386 | 9870 ft | 309 kts | 171° |
| 2026-05-05 19:14 | 38.03819 | 24.18139 | 10474 ft | 311 kts | 204° |
| 2026-05-05 19:14 | 38.02094 | 24.16609 | 11077 ft | 308 kts | 235° |
| 2026-05-05 19:14 | 38.01015 | 24.14247 | 11423 ft | 319 kts | 248° |
| 2026-05-05 19:14 | 38.00051 | 24.11610 | 11559 ft | 340 kts | 249° |
| 2026-05-05 19:15 | 37.99063 | 24.08784 | 11681 ft | 361 kts | 250° |
| 2026-05-05 19:15 | 37.98033 | 24.05809 | 11928 ft | 375 kts | 249° |
| 2026-05-05 19:15 | 37.96964 | 24.02762 | 12466 ft | 380 kts | 249° |
| 2026-05-05 19:15 | 37.95869 | 23.99695 | 13066 ft | 384 kts | 249° |
| 2026-05-05 19:16 | 37.94751 | 23.96607 | 13688 ft | 387 kts | 248° |
| 2026-05-05 19:16 | 37.93618 | 23.93499 | 14237 ft | 390 kts | 248° |
| 2026-05-05 19:16 | 37.92477 | 23.90373 | 14784 ft | 392 kts | 249° |
| 2026-05-05 19:16 | 37.91328 | 23.87227 | 15332 ft | 394 kts | 249° |
| 2026-05-05 19:17 | 37.90176 | 23.84073 | 15865 ft | 396 kts | 249° |
| 2026-05-05 19:17 | 37.88920 | 23.80954 | 16388 ft | 400 kts | 242° |
| 2026-05-05 19:17 | 37.87273 | 23.78139 | 16865 ft | 407 kts | 233° |
| 2026-05-05 19:17 | 37.85396 | 23.75443 | 17365 ft | 409 kts | 233° |
| 2026-05-05 19:18 | 37.83512 | 23.72734 | 17870 ft | 411 kts | 233° |
| 2026-05-05 19:18 | 37.81616 | 23.70011 | 18373 ft | 413 kts | 233° |
| 2026-05-05 19:18 | 37.79713 | 23.67279 | 18798 ft | 415 kts | 233° |
| 2026-05-05 19:18 | 37.77798 | 23.64530 | 19207 ft | 417 kts | 233° |
| 2026-05-05 19:19 | 37.75879 | 23.61775 | 19623 ft | 419 kts | 233° |
| 2026-05-05 19:19 | 37.74604 | 23.59947 | 19897 ft | 420 kts | 233° |